Zeeland, North Dakota
Current Conditions -  °F | °C
As of 3:35 AM on Thursday 18 Dec 2014 (Local Time) from K7L2 Reporting Station
Overcast Overcast  
Wind Chill:   Ceiling: 600
Heat Index: 14°   Visibility: 10mi
Dew Point: 14°   Wind: 13mph
Humidity: 100%   Direction: 150°SSE
Pressure: 30.13"   Gusts: NA
Location:  45.97°N, 99.83°W
Report Text: K7L2 180935Z AUTO 15011KT 10SM BKN006 OVC014 M10/M10 A3013 RMK AO2
Loading
Personal Weather Stations






























Interactive Weather Map New forecast layout! Learn more

10-Day Weather Forecast

Advertisements
Track Severe Weather on mobile